sensor_id;sensor_type;location;lat;lon;timestamp;temperature;humidity
21387;DHT22;10854;45.922;6.716;2024-03-08T00:01:33;-0.10;99.90
21387;DHT22;10854;45.922;6.716;2024-03-08T00:04:05;-0.10;99.90
21387;DHT22;10854;45.922;6.716;2024-03-08T00:06:35;-0.10;99.90
21387;DHT22;10854;45.922;6.716;2024-03-08T00:09:04;-0.20;99.90
21387;DHT22;10854;45.922;6.716;2024-03-08T00:11:32;-0.10;99.90
21387;DHT22;10854;45.922;6.716;2024-03-08T00:14:01;-0.20;99.90
21387;DHT22;10854;45.922;6.716;2024-03-08T00:16:30;-0.30;99.90
21387;DHT22;10854;45.922;6.716;2024-03-08T00:18:58;-0.30;99.90
21387;DHT22;10854;45.922;6.716;2024-03-08T00:21:27;-0.30;99.90
21387;DHT22;10854;45.922;6.716;2024-03-08T00:23:56;-0.30;99.90
21387;DHT22;10854;45.922;6.716;2024-03-08T00:26:26;-0.40;99.90
21387;DHT22;10854;45.922;6.716;2024-03-08T00:28:54;-0.40;99.90
21387;DHT22;10854;45.922;6.716;2024-03-08T00:31:25;-0.50;99.90
21387;DHT22;10854;45.922;6.716;2024-03-08T00:33:54;-0.50;99.90
21387;DHT22;10854;45.922;6.716;2024-03-08T00:36:23;-0.50;99.90
21387;DHT22;10854;45.922;6.716;2024-03-08T00:38:53;-0.60;99.90
21387;DHT22;10854;45.922;6.716;2024-03-08T00:41:23;-0.60;99.90
21387;DHT22;10854;45.922;6.716;2024-03-08T00:43:56;-0.70;99.90
21387;DHT22;10854;45.922;6.716;2024-03-08T00:46:25;-0.70;99.90
21387;DHT22;10854;45.922;6.716;2024-03-08T00:48:54;-0.70;99.90
21387;DHT22;10854;45.922;6.716;2024-03-08T00:51:24;-0.70;99.90
21387;DHT22;10854;45.922;6.716;2024-03-08T00:53:53;-0.70;99.90
21387;DHT22;10854;45.922;6.716;2024-03-08T00:56:22;-0.70;99.90
21387;DHT22;10854;45.922;6.716;2024-03-08T00:58:54;-0.80;99.90
21387;DHT22;10854;45.922;6.716;2024-03-08T01:01:22;-0.80;99.90
21387;DHT22;10854;45.922;6.716;2024-03-08T01:03:52;-0.80;99.90
21387;DHT22;10854;45.922;6.716;2024-03-08T01:06:21;-0.80;99.90
21387;DHT22;10854;45.922;6.716;2024-03-08T01:08:49;-0.90;99.90
21387;DHT22;10854;45.922;6.716;2024-03-08T01:11:19;-0.90;99.90
21387;DHT22;10854;45.922;6.716;2024-03-08T01:13:48;-1.00;99.90
21387;DHT22;10854;45.922;6.716;2024-03-08T01:16:18;-1.00;99.90
21387;DHT22;10854;45.922;6.716;2024-03-08T01:18:48;-1.10;99.90
21387;DHT22;10854;45.922;6.716;2024-03-08T01:21:17;-1.10;99.90
21387;DHT22;10854;45.922;6.716;2024-03-08T01:23:46;-1.10;99.90
21387;DHT22;10854;45.922;6.716;2024-03-08T01:26:15;-1.10;99.90
21387;DHT22;10854;45.922;6.716;2024-03-08T01:28:44;-1.20;99.90
21387;DHT22;10854;45.922;6.716;2024-03-08T01:31:14;-1.10;99.90
21387;DHT22;10854;45.922;6.716;2024-03-08T01:33:43;-1.10;99.90
21387;DHT22;10854;45.922;6.716;2024-03-08T01:36:12;-1.00;99.90
21387;DHT22;10854;45.922;6.716;2024-03-08T01:38:43;-1.10;99.90
21387;DHT22;10854;45.922;6.716;2024-03-08T01:41:11;-1.10;99.90
21387;DHT22;10854;45.922;6.716;2024-03-08T01:43:42;-1.10;99.90
21387;DHT22;10854;45.922;6.716;2024-03-08T01:46:13;-1.10;99.90
21387;DHT22;10854;45.922;6.716;2024-03-08T01:48:44;-1.10;99.90
21387;DHT22;10854;45.922;6.716;2024-03-08T01:51:14;-1.10;99.90
21387;DHT22;10854;45.922;6.716;2024-03-08T01:53:46;-1.20;99.90
21387;DHT22;10854;45.922;6.716;2024-03-08T01:56:14;-1.20;99.90
21387;DHT22;10854;45.922;6.716;2024-03-08T01:58:43;-1.10;99.90
21387;DHT22;10854;45.922;6.716;2024-03-08T02:01:13;-1.10;99.90
21387;DHT22;10854;45.922;6.716;2024-03-08T02:03:43;-1.10;99.90
21387;DHT22;10854;45.922;6.716;2024-03-08T02:06:12;-1.20;99.90
21387;DHT22;10854;45.922;6.716;2024-03-08T02:08:45;-1.20;99.90
21387;DHT22;10854;45.922;6.716;2024-03-08T02:11:14;-1.20;99.90
21387;DHT22;10854;45.922;6.716;2024-03-08T02:13:44;-1.20;99.90
21387;DHT22;10854;45.922;6.716;2024-03-08T02:16:21;-1.20;99.90
21387;DHT22;10854;45.922;6.716;2024-03-08T02:18:51;-1.20;99.90
21387;DHT22;10854;45.922;6.716;2024-03-08T02:21:20;-1.20;99.90
21387;DHT22;10854;45.922;6.716;2024-03-08T02:23:49;-1.20;99.90
21387;DHT22;10854;45.922;6.716;2024-03-08T02:26:20;-1.20;99.90
21387;DHT22;10854;45.922;6.716;2024-03-08T02:28:48;-1.30;99.90
21387;DHT22;10854;45.922;6.716;2024-03-08T02:31:17;-1.30;99.90
21387;DHT22;10854;45.922;6.716;2024-03-08T02:33:45;-1.40;99.90
21387;DHT22;10854;45.922;6.716;2024-03-08T02:36:15;-1.40;99.90
21387;DHT22;10854;45.922;6.716;2024-03-08T02:38:44;-1.40;99.90
21387;DHT22;10854;45.922;6.716;2024-03-08T02:41:12;-1.50;99.90
21387;DHT22;10854;45.922;6.716;2024-03-08T02:43:41;-1.60;99.90
21387;DHT22;10854;45.922;6.716;2024-03-08T02:46:09;-1.60;99.90
21387;DHT22;10854;45.922;6.716;2024-03-08T02:48:38;-1.50;99.90
21387;DHT22;10854;45.922;6.716;2024-03-08T02:51:07;-1.50;99.90
21387;DHT22;10854;45.922;6.716;2024-03-08T02:53:38;-1.50;99.90
21387;DHT22;10854;45.922;6.716;2024-03-08T02:56:07;-1.60;99.90
21387;DHT22;10854;45.922;6.716;2024-03-08T02:58:40;-1.60;99.90
21387;DHT22;10854;45.922;6.716;2024-03-08T03:01:09;-1.70;99.90
21387;DHT22;10854;45.922;6.716;2024-03-08T03:03:38;-1.70;99.90
21387;DHT22;10854;45.922;6.716;2024-03-08T03:06:06;-1.70;99.90
21387;DHT22;10854;45.922;6.716;2024-03-08T03:08:35;-1.70;99.90
21387;DHT22;10854;45.922;6.716;2024-03-08T03:11:04;-1.70;99.90
21387;DHT22;10854;45.922;6.716;2024-03-08T03:13:33;-1.80;99.90
21387;DHT22;10854;45.922;6.716;2024-03-08T03:16:01;-1.80;99.90
21387;DHT22;10854;45.922;6.716;2024-03-08T03:18:31;-1.80;99.90
21387;DHT22;10854;45.922;6.716;2024-03-08T03:21:01;-1.80;99.90
21387;DHT22;10854;45.922;6.716;2024-03-08T03:23:35;-1.80;99.90
21387;DHT22;10854;45.922;6.716;2024-03-08T03:26:05;-1.80;99.90
21387;DHT22;10854;45.922;6.716;2024-03-08T03:28:39;-1.80;99.90
21387;DHT22;10854;45.922;6.716;2024-03-08T03:31:07;-1.80;99.90
21387;DHT22;10854;45.922;6.716;2024-03-08T03:33:37;-1.70;99.90
21387;DHT22;10854;45.922;6.716;2024-03-08T03:36:07;-1.70;99.90
21387;DHT22;10854;45.922;6.716;2024-03-08T03:38:39;-1.80;99.90
21387;DHT22;10854;45.922;6.716;2024-03-08T03:41:08;-1.80;99.90
21387;DHT22;10854;45.922;6.716;2024-03-08T03:43:42;-1.80;99.90
21387;DHT22;10854;45.922;6.716;2024-03-08T03:46:12;-1.80;99.90
21387;DHT22;10854;45.922;6.716;2024-03-08T03:48:40;-1.80;99.90
21387;DHT22;10854;45.922;6.716;2024-03-08T03:51:10;-1.80;99.90
21387;DHT22;10854;45.922;6.716;2024-03-08T03:53:39;-1.70;99.90
21387;DHT22;10854;45.922;6.716;2024-03-08T03:56:07;-1.80;99.90
21387;DHT22;10854;45.922;6.716;2024-03-08T03:58:36;-1.80;99.90
21387;DHT22;10854;45.922;6.716;2024-03-08T04:01:05;-1.80;99.90
21387;DHT22;10854;45.922;6.716;2024-03-08T04:03:35;-1.80;99.90
21387;DHT22;10854;45.922;6.716;2024-03-08T04:06:05;-1.90;99.90
21387;DHT22;10854;45.922;6.716;2024-03-08T04:08:33;-1.90;99.90
21387;DHT22;10854;45.922;6.716;2024-03-08T04:11:02;-1.90;99.90
21387;DHT22;10854;45.922;6.716;2024-03-08T04:13:31;-2.00;99.90
21387;DHT22;10854;45.922;6.716;2024-03-08T04:15:59;-2.00;99.90
21387;DHT22;10854;45.922;6.716;2024-03-08T04:18:28;-2.00;99.90
21387;DHT22;10854;45.922;6.716;2024-03-08T04:20:56;-2.10;99.90
21387;DHT22;10854;45.922;6.716;2024-03-08T04:23:25;-2.10;99.90
21387;DHT22;10854;45.922;6.716;2024-03-08T04:25:53;-2.10;99.90
21387;DHT22;10854;45.922;6.716;2024-03-08T04:28:22;-2.00;99.90
21387;DHT22;10854;45.922;6.716;2024-03-08T04:30:51;-2.00;99.90
21387;DHT22;10854;45.922;6.716;2024-03-08T04:33:19;-2.00;99.90
21387;DHT22;10854;45.922;6.716;2024-03-08T04:35:47;-2.00;99.90
21387;DHT22;10854;45.922;6.716;2024-03-08T04:38:17;-2.00;99.90
21387;DHT22;10854;45.922;6.716;2024-03-08T04:40:45;-2.00;99.90
21387;DHT22;10854;45.922;6.716;2024-03-08T04:43:14;-2.00;99.90
21387;DHT22;10854;45.922;6.716;2024-03-08T04:45:43;-2.00;99.90
21387;DHT22;10854;45.922;6.716;2024-03-08T04:48:11;-2.00;99.90
21387;DHT22;10854;45.922;6.716;2024-03-08T04:50:43;-2.10;99.90
21387;DHT22;10854;45.922;6.716;2024-03-08T04:53:13;-2.10;99.90
21387;DHT22;10854;45.922;6.716;2024-03-08T04:55:42;-2.10;99.90
21387;DHT22;10854;45.922;6.716;2024-03-08T04:58:10;-2.20;99.90
21387;DHT22;10854;45.922;6.716;2024-03-08T05:00:39;-2.20;99.90
21387;DHT22;10854;45.922;6.716;2024-03-08T05:03:07;-2.10;99.90
21387;DHT22;10854;45.922;6.716;2024-03-08T05:05:38;-2.10;99.90
21387;DHT22;10854;45.922;6.716;2024-03-08T05:08:06;-2.10;99.90
21387;DHT22;10854;45.922;6.716;2024-03-08T05:10:35;-2.10;99.90
21387;DHT22;10854;45.922;6.716;2024-03-08T05:13:04;-2.20;99.90
21387;DHT22;10854;45.922;6.716;2024-03-08T05:15:33;-2.20;99.90
21387;DHT22;10854;45.922;6.716;2024-03-08T05:18:03;-2.20;99.90
21387;DHT22;10854;45.922;6.716;2024-03-08T05:20:32;-2.10;99.90
21387;DHT22;10854;45.922;6.716;2024-03-08T05:23:00;-2.10;99.90
21387;DHT22;10854;45.922;6.716;2024-03-08T05:25:29;-2.10;99.90
21387;DHT22;10854;45.922;6.716;2024-03-08T05:27:58;-2.10;99.90
21387;DHT22;10854;45.922;6.716;2024-03-08T05:30:27;-2.20;99.90
21387;DHT22;10854;45.922;6.716;2024-03-08T05:32:57;-2.20;99.90
21387;DHT22;10854;45.922;6.716;2024-03-08T05:35:26;-2.20;99.90
21387;DHT22;10854;45.922;6.716;2024-03-08T05:37:54;-2.10;99.90
21387;DHT22;10854;45.922;6.716;2024-03-08T05:40:23;-2.10;99.90
21387;DHT22;10854;45.922;6.716;2024-03-08T05:42:52;-2.20;99.90
21387;DHT22;10854;45.922;6.716;2024-03-08T05:45:21;-2.20;99.90
21387;DHT22;10854;45.922;6.716;2024-03-08T05:47:49;-2.20;99.90
21387;DHT22;10854;45.922;6.716;2024-03-08T05:50:19;-2.20;99.90
21387;DHT22;10854;45.922;6.716;2024-03-08T05:52:48;-2.10;99.90
21387;DHT22;10854;45.922;6.716;2024-03-08T05:55:19;-2.20;99.90
21387;DHT22;10854;45.922;6.716;2024-03-08T05:57:47;-2.10;99.90
21387;DHT22;10854;45.922;6.716;2024-03-08T06:00:16;-2.10;99.90
21387;DHT22;10854;45.922;6.716;2024-03-08T06:02:45;-2.10;99.90
21387;DHT22;10854;45.922;6.716;2024-03-08T06:05:13;-2.10;99.90
21387;DHT22;10854;45.922;6.716;2024-03-08T06:07:42;-2.10;99.90
21387;DHT22;10854;45.922;6.716;2024-03-08T06:10:11;-2.10;99.90
21387;DHT22;10854;45.922;6.716;2024-03-08T06:12:45;-2.10;99.90
21387;DHT22;10854;45.922;6.716;2024-03-08T06:15:14;-2.10;99.90
21387;DHT22;10854;45.922;6.716;2024-03-08T06:17:43;-2.10;99.90
21387;DHT22;10854;45.922;6.716;2024-03-08T06:20:12;-2.10;99.90
21387;DHT22;10854;45.922;6.716;2024-03-08T06:22:42;-2.10;99.90
21387;DHT22;10854;45.922;6.716;2024-03-08T06:25:12;-2.10;99.90
21387;DHT22;10854;45.922;6.716;2024-03-08T06:27:44;-2.00;99.90
21387;DHT22;10854;45.922;6.716;2024-03-08T06:30:16;-2.10;99.90
21387;DHT22;10854;45.922;6.716;2024-03-08T06:32:45;-2.00;99.90
21387;DHT22;10854;45.922;6.716;2024-03-08T06:35:15;-2.00;99.90
21387;DHT22;10854;45.922;6.716;2024-03-08T06:37:44;-1.90;99.90
21387;DHT22;10854;45.922;6.716;2024-03-08T06:40:13;-1.90;99.90
21387;DHT22;10854;45.922;6.716;2024-03-08T06:42:41;-1.90;99.90
21387;DHT22;10854;45.922;6.716;2024-03-08T06:45:11;-1.90;99.90
21387;DHT22;10854;45.922;6.716;2024-03-08T06:47:40;-1.80;99.90
21387;DHT22;10854;45.922;6.716;2024-03-08T06:50:09;-1.70;99.90
21387;DHT22;10854;45.922;6.716;2024-03-08T06:52:39;-1.70;99.90
21387;DHT22;10854;45.922;6.716;2024-03-08T06:55:08;-1.60;99.90
21387;DHT22;10854;45.922;6.716;2024-03-08T06:57:40;-1.60;99.90
21387;DHT22;10854;45.922;6.716;2024-03-08T07:00:10;-1.50;99.90
21387;DHT22;10854;45.922;6.716;2024-03-08T07:02:46;-1.40;99.90
21387;DHT22;10854;45.922;6.716;2024-03-08T07:05:18;-1.40;99.90
21387;DHT22;10854;45.922;6.716;2024-03-08T07:07:46;-1.30;99.90
21387;DHT22;10854;45.922;6.716;2024-03-08T07:10:17;-1.30;99.90
21387;DHT22;10854;45.922;6.716;2024-03-08T07:12:47;-1.20;99.90
21387;DHT22;10854;45.922;6.716;2024-03-08T07:15:15;-1.20;99.90
21387;DHT22;10854;45.922;6.716;2024-03-08T07:17:47;-1.20;99.90
21387;DHT22;10854;45.922;6.716;2024-03-08T07:20:16;-1.10;99.90
21387;DHT22;10854;45.922;6.716;2024-03-08T07:22:47;-1.10;99.90
21387;DHT22;10854;45.922;6.716;2024-03-08T07:25:19;-1.10;99.90
21387;DHT22;10854;45.922;6.716;2024-03-08T07:27:53;-1.00;99.90
21387;DHT22;10854;45.922;6.716;2024-03-08T07:30:24;-1.00;99.90
21387;DHT22;10854;45.922;6.716;2024-03-08T07:33:11;-1.00;99.90
21387;DHT22;10854;45.922;6.716;2024-03-08T07:35:41;-1.00;99.90
21387;DHT22;10854;45.922;6.716;2024-03-08T07:38:10;-1.00;99.90
21387;DHT22;10854;45.922;6.716;2024-03-08T07:40:40;-0.90;99.90
21387;DHT22;10854;45.922;6.716;2024-03-08T07:43:12;-0.90;99.90
21387;DHT22;10854;45.922;6.716;2024-03-08T07:45:41;-0.90;99.90
21387;DHT22;10854;45.922;6.716;2024-03-08T07:48:10;-0.80;99.90
21387;DHT22;10854;45.922;6.716;2024-03-08T07:50:40;-0.80;99.90
21387;DHT22;10854;45.922;6.716;2024-03-08T07:53:09;-0.80;99.90
21387;DHT22;10854;45.922;6.716;2024-03-08T07:55:38;-0.80;99.90
21387;DHT22;10854;45.922;6.716;2024-03-08T07:58:07;-0.70;99.90
21387;DHT22;10854;45.922;6.716;2024-03-08T08:00:39;-0.70;99.90
21387;DHT22;10854;45.922;6.716;2024-03-08T08:03:08;-0.60;99.90
21387;DHT22;10854;45.922;6.716;2024-03-08T08:05:37;-0.60;99.90
21387;DHT22;10854;45.922;6.716;2024-03-08T08:08:08;-0.60;99.90
21387;DHT22;10854;45.922;6.716;2024-03-08T08:10:38;-0.50;99.90
21387;DHT22;10854;45.922;6.716;2024-03-08T08:13:07;-0.40;99.90
21387;DHT22;10854;45.922;6.716;2024-03-08T08:15:35;-0.40;99.90
21387;DHT22;10854;45.922;6.716;2024-03-08T08:18:05;-0.30;99.90
21387;DHT22;10854;45.922;6.716;2024-03-08T08:20:33;-0.20;99.90
21387;DHT22;10854;45.922;6.716;2024-03-08T08:23:02;-0.20;99.90
21387;DHT22;10854;45.922;6.716;2024-03-08T08:25:31;-0.10;99.90
21387;DHT22;10854;45.922;6.716;2024-03-08T08:28:02;0.10;99.90
21387;DHT22;10854;45.922;6.716;2024-03-08T08:30:32;0.30;99.90
21387;DHT22;10854;45.922;6.716;2024-03-08T08:33:04;0.80;99.90
21387;DHT22;10854;45.922;6.716;2024-03-08T08:35:33;1.60;99.90
21387;DHT22;10854;45.922;6.716;2024-03-08T08:38:02;2.40;99.90
21387;DHT22;10854;45.922;6.716;2024-03-08T08:40:36;3.10;99.90
21387;DHT22;10854;45.922;6.716;2024-03-08T08:43:05;3.70;99.90
21387;DHT22;10854;45.922;6.716;2024-03-08T08:45:34;4.10;99.90
21387;DHT22;10854;45.922;6.716;2024-03-08T08:48:03;4.60;99.90
21387;DHT22;10854;45.922;6.716;2024-03-08T08:50:33;5.10;99.90
21387;DHT22;10854;45.922;6.716;2024-03-08T08:53:02;5.60;99.90
21387;DHT22;10854;45.922;6.716;2024-03-08T08:55:31;5.70;98.00
21387;DHT22;10854;45.922;6.716;2024-03-08T08:58:04;5.80;95.90
21387;DHT22;10854;45.922;6.716;2024-03-08T09:00:33;5.70;93.90
21387;DHT22;10854;45.922;6.716;2024-03-08T09:03:05;5.50;92.00
21387;DHT22;10854;45.922;6.716;2024-03-08T09:05:37;5.50;92.20
21387;DHT22;10854;45.922;6.716;2024-03-08T09:08:06;5.60;90.90
21387;DHT22;10854;45.922;6.716;2024-03-08T09:10:36;5.50;90.60
21387;DHT22;10854;45.922;6.716;2024-03-08T09:13:10;5.50;90.10
21387;DHT22;10854;45.922;6.716;2024-03-08T09:15:40;5.40;90.10
21387;DHT22;10854;45.922;6.716;2024-03-08T09:18:11;5.40;90.30
21387;DHT22;10854;45.922;6.716;2024-03-08T09:20:39;5.50;90.20
21387;DHT22;10854;45.922;6.716;2024-03-08T09:23:09;5.50;88.70
21387;DHT22;10854;45.922;6.716;2024-03-08T09:25:38;5.50;89.10
21387;DHT22;10854;45.922;6.716;2024-03-08T09:28:06;5.50;88.90
21387;DHT22;10854;45.922;6.716;2024-03-08T09:30:35;5.50;89.10
21387;DHT22;10854;45.922;6.716;2024-03-08T09:33:06;5.50;89.50
21387;DHT22;10854;45.922;6.716;2024-03-08T09:35:35;5.60;90.10
21387;DHT22;10854;45.922;6.716;2024-03-08T09:38:05;5.70;90.20
21387;DHT22;10854;45.922;6.716;2024-03-08T09:40:37;5.90;90.00
21387;DHT22;10854;45.922;6.716;2024-03-08T09:43:06;6.10;90.00
21387;DHT22;10854;45.922;6.716;2024-03-08T09:45:36;6.20;88.80
21387;DHT22;10854;45.922;6.716;2024-03-08T09:48:11;6.40;89.20
21387;DHT22;10854;45.922;6.716;2024-03-08T09:50:42;6.50;88.20
21387;DHT22;10854;45.922;6.716;2024-03-08T09:53:12;6.70;88.30
21387;DHT22;10854;45.922;6.716;2024-03-08T09:55:41;6.90;88.30
21387;DHT22;10854;45.922;6.716;2024-03-08T09:58:15;7.20;88.00
21387;DHT22;10854;45.922;6.716;2024-03-08T10:00:55;7.70;88.60
21387;DHT22;10854;45.922;6.716;2024-03-08T10:03:32;8.50;88.40
21387;DHT22;10854;45.922;6.716;2024-03-08T10:06:02;9.20;84.50
21387;DHT22;10854;45.922;6.716;2024-03-08T10:08:33;9.70;82.90
21387;DHT22;10854;45.922;6.716;2024-03-08T10:11:02;10.40;80.50
21387;DHT22;10854;45.922;6.716;2024-03-08T10:13:32;11.00;77.80
21387;DHT22;10854;45.922;6.716;2024-03-08T10:16:03;11.50;75.80
21387;DHT22;10854;45.922;6.716;2024-03-08T10:18:33;12.00;74.80
21387;DHT22;10854;45.922;6.716;2024-03-08T10:21:06;12.40;71.60
21387;DHT22;10854;45.922;6.716;2024-03-08T10:23:35;12.80;69.40
21387;DHT22;10854;45.922;6.716;2024-03-08T10:26:14;13.20;68.60
21387;DHT22;10854;45.922;6.716;2024-03-08T10:28:47;13.40;65.50
21387;DHT22;10854;45.922;6.716;2024-03-08T10:31:19;13.60;65.50
21387;DHT22;10854;45.922;6.716;2024-03-08T10:33:49;13.90;61.20
21387;DHT22;10854;45.922;6.716;2024-03-08T10:36:18;13.90;61.20
21387;DHT22;10854;45.922;6.716;2024-03-08T10:38:52;14.00;61.60
21387;DHT22;10854;45.922;6.716;2024-03-08T10:41:24;14.30;62.00
21387;DHT22;10854;45.922;6.716;2024-03-08T10:47:19;15.70;59.60
21387;DHT22;10854;45.922;6.716;2024-03-08T10:50:04;16.40;58.20
21387;DHT22;10854;45.922;6.716;2024-03-08T10:52:36;16.90;57.50
21387;DHT22;10854;45.922;6.716;2024-03-08T10:55:05;17.30;56.10
21387;DHT22;10854;45.922;6.716;2024-03-08T10:57:41;17.60;51.80
21387;DHT22;10854;45.922;6.716;2024-03-08T11:00:10;17.60;50.60
21387;DHT22;10854;45.922;6.716;2024-03-08T11:02:46;17.40;51.20
21387;DHT22;10854;45.922;6.716;2024-03-08T11:05:41;17.40;51.20
21387;DHT22;10854;45.922;6.716;2024-03-08T11:08:18;17.50;45.90
21387;DHT22;10854;45.922;6.716;2024-03-08T11:10:53;17.40;47.80
21387;DHT22;10854;45.922;6.716;2024-03-08T11:13:37;17.30;49.80
21387;DHT22;10854;45.922;6.716;2024-03-08T11:16:12;17.20;50.70
21387;DHT22;10854;45.922;6.716;2024-03-08T11:18:42;17.50;51.50
21387;DHT22;10854;45.922;6.716;2024-03-08T11:21:11;17.80;50.90
21387;DHT22;10854;45.922;6.716;2024-03-08T11:23:40;18.20;49.00
21387;DHT22;10854;45.922;6.716;2024-03-08T11:26:23;18.60;48.10
21387;DHT22;10854;45.922;6.716;2024-03-08T11:28:52;19.20;47.10
21387;DHT22;10854;45.922;6.716;2024-03-08T11:31:22;19.50;46.40
21387;DHT22;10854;45.922;6.716;2024-03-08T11:33:51;19.70;45.90
21387;DHT22;10854;45.922;6.716;2024-03-08T11:36:24;20.00;40.50
21387;DHT22;10854;45.922;6.716;2024-03-08T11:38:53;19.80;35.10
21387;DHT22;10854;45.922;6.716;2024-03-08T11:41:24;19.60;35.30
21387;DHT22;10854;45.922;6.716;2024-03-08T11:44:05;19.60;34.90
21387;DHT22;10854;45.922;6.716;2024-03-08T11:46:34;19.60;33.80
21387;DHT22;10854;45.922;6.716;2024-03-08T11:49:02;19.40;33.30
21387;DHT22;10854;45.922;6.716;2024-03-08T11:51:32;19.30;33.80
21387;DHT22;10854;45.922;6.716;2024-03-08T11:54:01;19.20;33.00
21387;DHT22;10854;45.922;6.716;2024-03-08T11:56:29;19.10;33.50
21387;DHT22;10854;45.922;6.716;2024-03-08T11:58:58;19.30;33.20
21387;DHT22;10854;45.922;6.716;2024-03-08T12:01:29;19.20;32.00
21387;DHT22;10854;45.922;6.716;2024-03-08T12:03:57;19.00;31.90
21387;DHT22;10854;45.922;6.716;2024-03-08T12:06:36;18.80;32.30
21387;DHT22;10854;45.922;6.716;2024-03-08T12:09:11;18.70;32.40
21387;DHT22;10854;45.922;6.716;2024-03-08T12:11:41;18.60;33.60
21387;DHT22;10854;45.922;6.716;2024-03-08T12:14:10;18.70;33.10
21387;DHT22;10854;45.922;6.716;2024-03-08T12:16:39;18.60;32.80
21387;DHT22;10854;45.922;6.716;2024-03-08T12:19:08;18.30;33.10
21387;DHT22;10854;45.922;6.716;2024-03-08T12:21:37;18.00;32.70
21387;DHT22;10854;45.922;6.716;2024-03-08T12:24:07;17.70;32.90
21387;DHT22;10854;45.922;6.716;2024-03-08T12:26:38;17.70;33.60
21387;DHT22;10854;45.922;6.716;2024-03-08T12:29:24;17.90;33.20
21387;DHT22;10854;45.922;6.716;2024-03-08T12:31:55;18.10;32.90
21387;DHT22;10854;45.922;6.716;2024-03-08T12:34:27;18.20;32.60
21387;DHT22;10854;45.922;6.716;2024-03-08T12:36:56;18.00;32.80
21387;DHT22;10854;45.922;6.716;2024-03-08T12:39:25;17.70;32.00
21387;DHT22;10854;45.922;6.716;2024-03-08T12:41:55;17.30;33.40
21387;DHT22;10854;45.922;6.716;2024-03-08T12:44:25;17.10;32.60
21387;DHT22;10854;45.922;6.716;2024-03-08T12:46:54;16.70;33.30
21387;DHT22;10854;45.922;6.716;2024-03-08T12:49:22;16.50;34.00
21387;DHT22;10854;45.922;6.716;2024-03-08T12:51:51;16.40;34.40
21387;DHT22;10854;45.922;6.716;2024-03-08T12:54:20;16.70;34.70
21387;DHT22;10854;45.922;6.716;2024-03-08T12:56:51;17.10;34.30
21387;DHT22;10854;45.922;6.716;2024-03-08T12:59:22;17.60;34.40
21387;DHT22;10854;45.922;6.716;2024-03-08T13:01:52;18.00;34.00
21387;DHT22;10854;45.922;6.716;2024-03-08T13:04:22;18.40;33.90
21387;DHT22;10854;45.922;6.716;2024-03-08T13:06:51;18.80;33.70
21387;DHT22;10854;45.922;6.716;2024-03-08T13:09:20;19.10;32.70
21387;DHT22;10854;45.922;6.716;2024-03-08T13:11:50;19.30;32.90
21387;DHT22;10854;45.922;6.716;2024-03-08T13:14:18;19.30;33.30
21387;DHT22;10854;45.922;6.716;2024-03-08T13:16:47;19.20;33.70
21387;DHT22;10854;45.922;6.716;2024-03-08T13:19:16;18.90;33.20
21387;DHT22;10854;45.922;6.716;2024-03-08T13:21:45;18.60;33.70
21387;DHT22;10854;45.922;6.716;2024-03-08T13:24:17;18.20;36.10
21387;DHT22;10854;45.922;6.716;2024-03-08T13:26:49;17.90;36.90
21387;DHT22;10854;45.922;6.716;2024-03-08T13:29:18;17.60;37.80
21387;DHT22;10854;45.922;6.716;2024-03-08T13:31:46;17.30;39.60
21387;DHT22;10854;45.922;6.716;2024-03-08T13:34:20;16.90;39.60
21387;DHT22;10854;45.922;6.716;2024-03-08T13:36:58;16.70;40.10
21387;DHT22;10854;45.922;6.716;2024-03-08T13:39:29;16.50;42.10
21387;DHT22;10854;45.922;6.716;2024-03-08T13:42:04;16.30;43.60
21387;DHT22;10854;45.922;6.716;2024-03-08T13:44:37;16.00;41.40
21387;DHT22;10854;45.922;6.716;2024-03-08T13:47:06;15.80;40.90
21387;DHT22;10854;45.922;6.716;2024-03-08T13:49:35;15.70;38.10
21387;DHT22;10854;45.922;6.716;2024-03-08T13:52:05;15.70;37.50
21387;DHT22;10854;45.922;6.716;2024-03-08T13:54:35;15.80;37.30
21387;DHT22;10854;45.922;6.716;2024-03-08T13:57:03;16.10;38.40
21387;DHT22;10854;45.922;6.716;2024-03-08T13:59:32;16.70;41.90
21387;DHT22;10854;45.922;6.716;2024-03-08T14:02:02;17.10;43.60
21387;DHT22;10854;45.922;6.716;2024-03-08T14:04:30;17.60;44.40
21387;DHT22;10854;45.922;6.716;2024-03-08T14:06:59;17.80;44.50
21387;DHT22;10854;45.922;6.716;2024-03-08T14:09:31;17.80;43.60
21387;DHT22;10854;45.922;6.716;2024-03-08T14:12:00;17.70;43.10
21387;DHT22;10854;45.922;6.716;2024-03-08T14:14:28;17.40;43.70
21387;DHT22;10854;45.922;6.716;2024-03-08T14:16:57;16.90;44.20
21387;DHT22;10854;45.922;6.716;2024-03-08T14:19:26;16.50;44.70
21387;DHT22;10854;45.922;6.716;2024-03-08T14:21:55;16.00;45.10
21387;DHT22;10854;45.922;6.716;2024-03-08T14:24:23;15.70;44.80
21387;DHT22;10854;45.922;6.716;2024-03-08T14:26:52;15.40;46.70
21387;DHT22;10854;45.922;6.716;2024-03-08T14:29:20;15.10;47.50
21387;DHT22;10854;45.922;6.716;2024-03-08T14:31:49;14.90;48.70
21387;DHT22;10854;45.922;6.716;2024-03-08T14:34:19;14.60;48.90
21387;DHT22;10854;45.922;6.716;2024-03-08T14:36:49;14.50;49.70
21387;DHT22;10854;45.922;6.716;2024-03-08T14:39:17;14.40;50.40
21387;DHT22;10854;45.922;6.716;2024-03-08T14:41:49;14.40;51.10
21387;DHT22;10854;45.922;6.716;2024-03-08T14:44:22;14.30;51.70
21387;DHT22;10854;45.922;6.716;2024-03-08T14:46:57;14.10;52.20
21387;DHT22;10854;45.922;6.716;2024-03-08T14:49:25;13.90;52.80
21387;DHT22;10854;45.922;6.716;2024-03-08T14:51:57;13.80;53.10
21387;DHT22;10854;45.922;6.716;2024-03-08T14:54:31;13.60;53.70
21387;DHT22;10854;45.922;6.716;2024-03-08T14:57:01;13.30;54.20
21387;DHT22;10854;45.922;6.716;2024-03-08T14:59:30;13.10;54.60
21387;DHT22;10854;45.922;6.716;2024-03-08T15:01:59;12.90;55.20
21387;DHT22;10854;45.922;6.716;2024-03-08T15:04:28;12.80;55.90
21387;DHT22;10854;45.922;6.716;2024-03-08T15:06:57;12.70;56.50
21387;DHT22;10854;45.922;6.716;2024-03-08T15:09:26;12.60;56.90
21387;DHT22;10854;45.922;6.716;2024-03-08T15:11:55;12.80;57.30
21387;DHT22;10854;45.922;6.716;2024-03-08T15:14:24;12.90;57.20
21387;DHT22;10854;45.922;6.716;2024-03-08T15:16:55;13.00;57.30
21387;DHT22;10854;45.922;6.716;2024-03-08T15:19:24;13.10;57.40
21387;DHT22;10854;45.922;6.716;2024-03-08T15:21:53;12.90;58.10
21387;DHT22;10854;45.922;6.716;2024-03-08T15:24:24;12.70;58.30
21387;DHT22;10854;45.922;6.716;2024-03-08T15:26:53;12.50;58.80
21387;DHT22;10854;45.922;6.716;2024-03-08T15:29:23;12.20;59.30
21387;DHT22;10854;45.922;6.716;2024-03-08T15:31:55;12.00;60.00
21387;DHT22;10854;45.922;6.716;2024-03-08T15:34:24;11.80;60.80
21387;DHT22;10854;45.922;6.716;2024-03-08T15:36:54;11.60;61.20
21387;DHT22;10854;45.922;6.716;2024-03-08T15:39:23;11.40;61.50
21387;DHT22;10854;45.922;6.716;2024-03-08T15:41:53;11.30;62.00
21387;DHT22;10854;45.922;6.716;2024-03-08T15:44:23;11.20;62.30
21387;DHT22;10854;45.922;6.716;2024-03-08T15:46:53;11.10;62.70
21387;DHT22;10854;45.922;6.716;2024-03-08T15:49:21;11.00;62.90
21387;DHT22;10854;45.922;6.716;2024-03-08T15:51:50;11.00;63.10
21387;DHT22;10854;45.922;6.716;2024-03-08T15:54:18;11.00;63.30